Time;durP1;ratioP1;P1;durP2;ratioP2;P2;SDS_P1;SDS_P2;PMS_P1;PMS_P2;Temp;Humidity;BMP_temperature;BMP_pressure;BME280_temperature;BME280_humidity;BME280_pressure;Samples;Min_cycle;Max_cycle;Signal;HPM_P1;HPM_P2
2023/09/29 00:00:49;;;;;;;25.42;19.13;;;14.60;99.90;;;;;;2084666;28;20024;-72
2023/09/29 00:01:49;;;;;;;24.17;18.48;;;14.70;99.90;;;;;;2091685;28;20063;-72
2023/09/29 00:02:53;;;;;;;25.75;19.00;;;14.60;99.90;;;;;;2087335;28;20033;-72
2023/09/29 00:03:53;;;;;;;23.45;18.70;;;14.60;99.90;;;;;;2085108;28;20071;-73
2023/09/29 00:04:54;;;;;;;24.10;19.02;;;14.60;99.90;;;;;;2091514;28;20158;-74
2023/09/29 00:05:55;;;;;;;25.45;18.55;;;14.60;99.90;;;;;;2088272;28;20193;-74
2023/09/29 00:06:55;;;;;;;23.50;18.67;;;14.60;99.90;;;;;;2087625;28;20036;-74
2023/09/29 00:07:56;;;;;;;24.92;18.35;;;14.60;99.90;;;;;;2083533;28;20032;-75
2023/09/29 00:08:58;;;;;;;23.80;18.80;;;14.60;99.90;;;;;;2088109;28;20086;-73
2023/09/29 00:09:58;;;;;;;25.40;18.55;;;14.50;99.90;;;;;;2074948;28;20592;-76
2023/09/29 00:10:59;;;;;;;22.77;18.77;;;14.50;99.90;;;;;;2071158;28;20029;-74
2023/09/29 00:11:59;;;;;;;25.65;19.15;;;14.50;99.90;;;;;;2079143;28;20052;-73
2023/09/29 00:13:00;;;;;;;29.20;19.80;;;14.50;99.90;;;;;;2071044;28;20622;-73
2023/09/29 00:14:01;;;;;;;25.58;19.25;;;14.50;99.90;;;;;;2077023;28;20026;-74
2023/09/29 00:15:04;;;;;;;23.58;19.08;;;14.50;99.90;;;;;;2086142;28;20033;-74
2023/09/29 00:16:04;;;;;;;27.00;18.80;;;14.50;99.90;;;;;;2085814;28;20025;-74
2023/09/29 00:17:05;;;;;;;21.35;18.58;;;14.50;99.90;;;;;;2087374;28;20059;-73
2023/09/29 00:18:07;;;;;;;25.00;19.27;;;14.50;99.90;;;;;;2085774;28;20013;-73
2023/09/29 00:19:07;;;;;;;22.17;19.15;;;14.50;99.90;;;;;;2079843;28;20124;-74
2023/09/29 00:20:22;;;;;;;27.65;20.05;;;14.50;99.90;;;;;;2075583;28;20025;-75
2023/09/29 00:21:22;;;;;;;27.38;19.15;;;14.50;99.90;;;;;;2087981;28;20552;-74
2023/09/29 00:22:23;;;;;;;22.85;19.20;;;14.50;99.90;;;;;;2086472;28;20025;-73
2023/09/29 00:23:24;;;;;;;24.63;19.45;;;14.40;99.90;;;;;;2076426;28;20033;-74
2023/09/29 00:24:24;;;;;;;27.45;19.63;;;14.40;99.90;;;;;;2087615;28;20045;-73
2023/09/29 00:25:25;;;;;;;24.60;19.98;;;14.40;99.90;;;;;;2087922;28;20053;-74
2023/09/29 00:26:26;;;;;;;24.27;19.08;;;14.40;99.90;;;;;;2088220;28;20094;-73
2023/09/29 00:27:27;;;;;;;26.25;19.20;;;14.40;99.90;;;;;;2086219;28;20036;-73
2023/09/29 00:28:27;;;;;;;24.60;19.23;;;14.40;99.90;;;;;;2075176;28;20752;-75
2023/09/29 00:29:28;;;;;;;26.00;19.30;;;14.40;99.90;;;;;;2087431;28;20029;-76
2023/09/29 00:30:29;;;;;;;26.17;19.42;;;14.40;99.90;;;;;;2088284;28;20032;-73
2023/09/29 00:31:29;;;;;;;25.45;20.00;;;14.40;99.90;;;;;;2085305;28;20143;-74
2023/09/29 00:32:30;;;;;;;27.95;19.83;;;14.40;99.90;;;;;;2085689;28;20086;-73
2023/09/29 00:33:31;;;;;;;25.30;20.48;;;14.30;99.90;;;;;;2080791;28;20017;-73
2023/09/29 00:34:32;;;;;;;26.65;19.38;;;14.30;99.90;;;;;;2079080;28;20064;-73
2023/09/29 00:35:34;;;;;;;25.45;19.88;;;14.30;99.90;;;;;;2075146;28;20107;-75
2023/09/29 00:36:35;;;;;;;27.63;19.73;;;14.30;99.90;;;;;;2087801;28;20032;-73
2023/09/29 00:37:36;;;;;;;28.23;19.52;;;14.30;99.90;;;;;;2087873;28;20029;-74
2023/09/29 00:38:37;;;;;;;25.15;18.80;;;14.30;99.90;;;;;;2085517;28;20495;-73
2023/09/29 00:39:37;;;;;;;27.52;19.75;;;14.30;99.90;;;;;;2087124;28;20543;-74
2023/09/29 00:40:38;;;;;;;25.58;19.85;;;14.30;99.90;;;;;;2079404;28;20132;-74
2023/09/29 00:41:38;;;;;;;26.90;19.95;;;14.30;99.90;;;;;;2085926;28;20037;-74
2023/09/29 00:42:39;;;;;;;24.50;19.33;;;14.30;99.90;;;;;;2088587;28;20624;-74
2023/09/29 00:43:40;;;;;;;25.60;19.63;;;14.30;99.90;;;;;;2083537;28;20036;-74
2023/09/29 00:44:41;;;;;;;28.13;19.73;;;14.30;99.90;;;;;;2091288;28;20498;-74
2023/09/29 00:45:42;;;;;;;24.58;19.42;;;14.30;99.90;;;;;;2091840;28;20021;-74
2023/09/29 00:46:43;;;;;;;23.08;19.35;;;14.30;99.90;;;;;;2087463;28;20032;-74
2023/09/29 00:47:45;;;;;;;24.27;18.90;;;14.30;99.90;;;;;;2083637;28;20074;-74
2023/09/29 00:48:48;;;;;;;24.25;18.75;;;14.30;99.90;;;;;;2087280;28;20055;-74
2023/09/29 00:49:49;;;;;;;25.75;19.73;;;14.30;99.90;;;;;;2075165;28;20412;-74
2023/09/29 00:50:50;;;;;;;26.10;19.80;;;14.30;99.90;;;;;;2087493;28;20041;-74
2023/09/29 00:51:52;;;;;;;24.83;20.10;;;14.20;99.90;;;;;;2090931;28;20060;-74
2023/09/29 00:52:58;;;;;;;22.58;18.52;;;14.30;99.90;;;;;;2079885;28;20009;-74
2023/09/29 00:53:59;;;;;;;26.33;19.10;;;14.30;99.90;;;;;;2081859;28;20529;-74
2023/09/29 00:54:59;;;;;;;25.65;19.17;;;14.20;99.90;;;;;;2079061;28;20106;-74
2023/09/29 00:56:02;;;;;;;25.33;19.27;;;14.20;99.90;;;;;;2076310;28;20025;-74
2023/09/29 00:57:05;;;;;;;26.48;20.17;;;14.20;99.90;;;;;;2077466;28;20021;-74
2023/09/29 00:58:06;;;;;;;28.05;19.00;;;14.20;99.90;;;;;;2087233;28;20016;-74
2023/09/29 00:59:09;;;;;;;23.45;19.50;;;14.20;99.90;;;;;;2088753;28;20040;-74
2023/09/29 01:00:31;;;;;;;26.40;19.80;;;14.20;99.90;;;;;;2086421;28;20415;-75
2023/09/29 01:01:34;;;;;;;25.77;19.98;;;14.20;99.90;;;;;;2083178;28;20041;-75
2023/09/29 01:02:37;;;;;;;26.48;19.15;;;14.10;99.90;;;;;;2078758;28;20035;-75
2023/09/29 01:03:37;;;;;;;27.00;19.65;;;14.10;99.90;;;;;;2077278;28;20203;-75
2023/09/29 01:04:38;;;;;;;25.80;19.80;;;14.10;99.90;;;;;;2082323;28;20029;-75
2023/09/29 01:05:49;;;;;;;27.20;20.58;;;14.10;99.90;;;;;;2087471;28;20060;-75
2023/09/29 01:06:50;;;;;;;26.65;19.60;;;14.10;99.90;;;;;;2082912;28;20110;-73
2023/09/29 01:07:51;;;;;;;26.50;19.45;;;14.10;99.90;;;;;;2086886;28;20089;-73
2023/09/29 01:08:52;;;;;;;24.90;19.83;;;14.10;99.90;;;;;;2083087;28;20671;-73
2023/09/29 01:09:53;;;;;;;27.77;19.63;;;14.10;99.90;;;;;;2082661;28;20025;-73
2023/09/29 01:10:54;;;;;;;23.55;18.98;;;14.10;99.90;;;;;;2083100;28;20041;-74
2023/09/29 01:11:55;;;;;;;27.60;19.63;;;14.10;99.90;;;;;;2083970;28;20554;-74
2023/09/29 01:12:56;;;;;;;24.95;20.10;;;14.10;99.90;;;;;;2090096;28;20035;-74
2023/09/29 01:13:56;;;;;;;26.25;20.35;;;14.10;99.90;;;;;;2089803;28;20422;-74
2023/09/29 01:14:57;;;;;;;26.10;19.45;;;14.00;99.90;;;;;;2084775;28;20037;-73
2023/09/29 01:15:59;;;;;;;23.67;19.25;;;14.00;99.90;;;;;;2091374;28;20039;-74
2023/09/29 01:17:00;;;;;;;24.95;19.70;;;14.00;99.90;;;;;;2091599;28;20398;-73
2023/09/29 01:18:01;;;;;;;25.73;19.05;;;14.00;99.90;;;;;;2081670;28;20744;-74
2023/09/29 01:19:02;;;;;;;26.13;19.55;;;14.00;99.90;;;;;;2088495;28;20035;-74
2023/09/29 01:20:05;;;;;;;26.73;19.70;;;14.00;99.90;;;;;;2099490;28;20149;-74
2023/09/29 01:21:06;;;;;;;26.75;19.50;;;14.00;99.90;;;;;;2083147;28;20079;-74
2023/09/29 01:22:07;;;;;;;26.08;19.05;;;13.90;99.90;;;;;;2073427;28;20021;-73
2023/09/29 01:23:07;;;;;;;26.45;19.38;;;13.90;99.90;;;;;;2089322;28;20086;-74
2023/09/29 01:24:08;;;;;;;24.70;19.85;;;13.90;99.90;;;;;;2085528;28;20081;-73
2023/09/29 01:25:10;;;;;;;24.55;19.77;;;13.90;99.90;;;;;;2074435;28;20160;-74
2023/09/29 01:26:10;;;;;;;26.33;18.80;;;13.90;99.90;;;;;;2066810;28;20120;-74
2023/09/29 01:27:11;;;;;;;24.23;19.70;;;14.00;99.90;;;;;;2085992;28;20126;-74
2023/09/29 01:28:12;;;;;;;26.67;19.70;;;13.90;99.90;;;;;;2103301;28;20048;-74
2023/09/29 01:29:12;;;;;;;24.08;19.50;;;13.90;99.90;;;;;;2083996;28;20021;-74
2023/09/29 01:30:13;;;;;;;27.27;20.27;;;13.90;99.90;;;;;;2074749;28;20571;-74
2023/09/29 01:31:14;;;;;;;23.83;19.88;;;13.90;99.90;;;;;;2091036;28;20201;-74
2023/09/29 01:32:15;;;;;;;24.77;19.38;;;13.90;99.90;;;;;;2099344;28;20036;-74
2023/09/29 01:33:15;;;;;;;22.23;18.75;;;13.90;99.90;;;;;;2083462;28;20037;-74
2023/09/29 01:34:16;;;;;;;30.25;19.75;;;13.90;99.90;;;;;;2090412;28;20564;-74
2023/09/29 01:35:17;;;;;;;25.08;19.92;;;13.90;99.90;;;;;;2083558;28;20112;-74
2023/09/29 01:36:18;;;;;;;26.67;20.38;;;13.90;99.90;;;;;;2086790;28;20028;-74
2023/09/29 01:37:21;;;;;;;24.88;19.63;;;13.90;99.90;;;;;;2091242;28;20508;-74
2023/09/29 01:38:22;;;;;;;24.63;19.45;;;13.90;99.90;;;;;;2079868;28;20044;-73
2023/09/29 01:39:23;;;;;;;26.75;19.88;;;13.90;99.90;;;;;;2087481;28;20043;-73
2023/09/29 01:40:23;;;;;;;25.02;19.52;;;13.90;99.90;;;;;;2086366;28;20616;-73
2023/09/29 01:41:24;;;;;;;24.13;19.08;;;13.90;99.90;;;;;;2086565;28;20492;-73
2023/09/29 01:42:25;;;;;;;28.40;19.85;;;13.90;99.90;;;;;;2082645;28;20024;-74
2023/09/29 01:43:26;;;;;;;23.15;19.42;;;13.90;99.90;;;;;;2087657;28;20033;-77
2023/09/29 01:44:27;;;;;;;27.17;19.55;;;13.90;99.90;;;;;;2082666;28;20029;-74
2023/09/29 01:45:27;;;;;;;26.10;20.48;;;13.90;99.90;;;;;;2082974;28;20490;-74
2023/09/29 01:46:29;;;;;;;25.63;20.35;;;13.90;99.90;;;;;;2079650;28;20101;-74
2023/09/29 01:47:30;;;;;;;26.10;20.42;;;13.90;99.90;;;;;;2077520;28;20026;-74
2023/09/29 01:48:31;;;;;;;24.23;19.90;;;13.90;99.90;;;;;;2083137;28;20063;-75
2023/09/29 01:49:31;;;;;;;28.00;20.60;;;13.90;99.90;;;;;;2079004;28;20029;-74
2023/09/29 01:50:32;;;;;;;24.05;20.58;;;13.80;99.90;;;;;;2084541;28;20009;-74
2023/09/29 01:51:33;;;;;;;25.98;20.60;;;13.80;99.90;;;;;;2090326;28;20033;-75
2023/09/29 01:52:34;;;;;;;24.05;19.77;;;13.80;99.90;;;;;;2085093;28;20033;-74
2023/09/29 01:53:34;;;;;;;27.17;19.70;;;13.80;99.90;;;;;;2082946;28;20082;-74
2023/09/29 01:54:38;;;;;;;26.92;20.13;;;13.80;99.90;;;;;;2085999;28;20033;-75
2023/09/29 01:55:39;;;;;;;24.15;20.00;;;13.80;99.90;;;;;;2082790;28;20407;-74
2023/09/29 01:56:40;;;;;;;25.58;19.77;;;13.80;99.90;;;;;;2078424;28;20033;-74
2023/09/29 01:57:44;;;;;;;23.65;19.55;;;13.80;99.90;;;;;;2066544;28;20038;-75
2023/09/29 01:58:44;;;;;;;23.95;19.10;;;13.80;99.90;;;;;;2078453;28;20017;-74
2023/09/29 01:59:45;;;;;;;29.63;21.08;;;13.80;99.90;;;;;;2073037;28;20491;-74
2023/09/29 02:00:46;;;;;;;25.20;19.70;;;13.80;99.90;;;;;;2075136;28;20088;-75
2023/09/29 02:01:47;;;;;;;25.65;19.63;;;13.80;99.90;;;;;;2087077;28;20037;-74
2023/09/29 02:02:48;;;;;;;25.80;19.85;;;13.80;99.90;;;;;;2078287;28;20028;-74
2023/09/29 02:03:49;;;;;;;25.63;19.83;;;13.80;99.90;;;;;;2079083;28;20084;-74
2023/09/29 02:04:52;;;;;;;27.17;19.80;;;13.80;99.90;;;;;;2091090;28;20048;-74
2023/09/29 02:05:53;;;;;;;25.52;19.55;;;13.80;99.90;;;;;;2090829;28;20020;-74
2023/09/29 02:06:54;;;;;;;25.48;19.48;;;13.80;99.90;;;;;;2087521;28;20475;-74
2023/09/29 02:07:55;;;;;;;25.65;19.85;;;13.80;99.90;;;;;;2085160;28;20511;-74
2023/09/29 02:08:56;;;;;;;25.50;19.85;;;13.80;99.90;;;;;;2066751;28;20059;-74
2023/09/29 02:09:56;;;;;;;22.77;19.80;;;13.80;99.90;;;;;;2075385;28;20040;-74
2023/09/29 02:10:57;;;;;;;27.63;21.23;;;13.80;99.90;;;;;;2087115;28;20112;-74
2023/09/29 02:11:58;;;;;;;23.48;19.67;;;13.70;99.90;;;;;;2090201;28;20020;-74
2023/09/29 02:12:59;;;;;;;24.13;19.52;;;13.70;99.90;;;;;;2087851;28;20025;-74
2023/09/29 02:14:00;;;;;;;25.70;20.15;;;13.70;99.90;;;;;;2077951;28;20028;-74
2023/09/29 02:15:01;;;;;;;25.08;19.92;;;13.70;99.90;;;;;;2075077;28;20029;-74
2023/09/29 02:16:08;;;;;;;24.63;19.83;;;13.70;99.90;;;;;;2079064;28;20119;-74
2023/09/29 02:17:09;;;;;;;24.15;20.08;;;13.70;99.90;;;;;;2063292;28;20022;-74
2023/09/29 02:18:10;;;;;;;28.90;20.80;;;13.70;99.90;;;;;;2071122;28;20053;-75
2023/09/29 02:19:10;;;;;;;26.08;20.40;;;13.70;99.90;;;;;;2082371;28;20024;-74
2023/09/29 02:20:20;;;;;;;26.13;19.58;;;13.70;99.90;;;;;;2080199;28;20591;-74
2023/09/29 02:21:27;;;;;;;25.25;19.80;;;13.70;99.90;;;;;;2091769;28;20032;-76
2023/09/29 02:22:30;;;;;;;23.15;19.60;;;13.70;99.90;;;;;;2091060;28;20040;-74
2023/09/29 02:23:31;;;;;;;27.67;19.90;;;13.70;99.90;;;;;;2087634;28;20044;-75
2023/09/29 02:24:31;;;;;;;25.95;19.17;;;13.70;99.90;;;;;;2091399;28;20033;-75
2023/09/29 02:25:32;;;;;;;24.98;19.63;;;13.70;99.90;;;;;;2093390;28;20028;-74
2023/09/29 02:26:34;;;;;;;27.40;19.10;;;13.70;99.90;;;;;;2081130;28;20112;-75
2023/09/29 02:27:36;;;;;;;25.30;19.15;;;13.70;99.90;;;;;;2084439;28;20044;-75
2023/09/29 02:28:36;;;;;;;28.05;20.40;;;13.70;99.90;;;;;;2085518;28;20025;-74
2023/09/29 02:29:37;;;;;;;24.27;20.25;;;13.70;99.90;;;;;;2086912;28;20311;-75
2023/09/29 02:30:38;;;;;;;24.63;19.73;;;13.70;99.90;;;;;;2088825;28;20107;-75
2023/09/29 02:31:39;;;;;;;26.20;19.80;;;13.70;99.90;;;;;;2086604;28;20115;-74
2023/09/29 02:32:43;;;;;;;28.38;20.67;;;13.70;99.90;;;;;;2090577;28;20033;-74
2023/09/29 02:33:44;;;;;;;27.83;20.52;;;13.70;99.90;;;;;;2087207;28;20028;-74
2023/09/29 02:34:44;;;;;;;27.92;19.58;;;13.70;99.90;;;;;;2084615;28;20025;-74
2023/09/29 02:35:45;;;;;;;28.25;20.75;;;13.60;99.90;;;;;;2083235;28;20144;-75
2023/09/29 02:36:45;;;;;;;25.05;19.60;;;13.60;99.90;;;;;;2087322;28;20048;-74
2023/09/29 02:37:47;;;;;;;23.17;19.67;;;13.60;99.90;;;;;;2083048;28;20052;-75
2023/09/29 02:38:48;;;;;;;25.52;19.90;;;13.60;99.90;;;;;;2086776;28;20025;-74
2023/09/29 02:39:49;;;;;;;24.13;19.55;;;13.60;99.90;;;;;;2087275;28;20033;-75
2023/09/29 02:40:50;;;;;;;26.88;20.85;;;13.60;99.90;;;;;;2082169;28;20047;-74
2023/09/29 02:41:51;;;;;;;25.70;20.63;;;13.60;99.90;;;;;;2086847;28;20508;-74
2023/09/29 02:42:53;;;;;;;26.15;20.08;;;13.60;99.90;;;;;;2074224;28;20030;-74
2023/09/29 02:43:54;;;;;;;29.17;20.55;;;13.60;99.90;;;;;;2082923;28;20032;-73
2023/09/29 02:44:55;;;;;;;28.23;20.48;;;13.60;99.90;;;;;;2086151;28;20119;-75
2023/09/29 02:45:56;;;;;;;28.17;20.00;;;13.50;99.90;;;;;;2086612;28;20045;-75
2023/09/29 02:46:58;;;;;;;24.88;20.13;;;13.50;99.90;;;;;;2086296;28;20047;-74
2023/09/29 02:47:59;;;;;;;23.70;19.13;;;13.50;99.90;;;;;;2083138;28;20108;-74
2023/09/29 02:49:00;;;;;;;24.45;19.60;;;13.50;99.90;;;;;;2086671;28;20545;-75
2023/09/29 02:50:01;;;;;;;26.38;19.50;;;13.50;99.90;;;;;;2085746;28;20021;-74
2023/09/29 02:51:02;;;;;;;25.48;20.65;;;13.60;99.90;;;;;;2086586;28;20017;-76
2023/09/29 02:52:06;;;;;;;26.63;20.65;;;13.60;99.90;;;;;;2084156;28;20033;-74
2023/09/29 02:53:07;;;;;;;26.48;20.30;;;13.60;99.90;;;;;;2078385;28;20025;-74
2023/09/29 02:54:10;;;;;;;26.80;20.23;;;13.50;99.90;;;;;;2080466;28;20078;-74
2023/09/29 02:55:12;;;;;;;26.55;19.92;;;13.50;99.90;;;;;;2084890;28;20100;-74
2023/09/29 02:56:13;;;;;;;26.67;20.17;;;13.50;99.90;;;;;;2090923;28;20616;-74
2023/09/29 02:57:14;;;;;;;27.73;20.08;;;13.50;99.90;;;;;;2082414;28;20044;-74
2023/09/29 02:58:16;;;;;;;25.25;20.60;;;13.50;99.90;;;;;;2081883;28;20648;-74
2023/09/29 02:59:20;;;;;;;24.02;19.98;;;13.50;99.90;;;;;;2071063;28;20030;-74
2023/09/29 03:00:26;;;;;;;30.58;21.05;;;13.50;99.90;;;;;;2085881;28;20059;-74
2023/09/29 03:01:28;;;;;;;27.73;20.92;;;13.50;99.90;;;;;;2084136;28;20116;-74
2023/09/29 03:02:29;;;;;;;26.40;20.58;;;13.50;99.90;;;;;;2090655;28;20391;-74
2023/09/29 03:03:30;;;;;;;26.58;21.30;;;13.50;99.90;;;;;;2087215;28;20091;-74
2023/09/29 03:04:30;;;;;;;26.30;20.30;;;13.50;99.90;;;;;;2082285;28;20028;-74
2023/09/29 03:05:32;;;;;;;27.25;20.65;;;13.40;99.90;;;;;;2083025;28;20021;-74
2023/09/29 03:06:33;;;;;;;26.30;19.65;;;13.40;99.90;;;;;;2085435;28;20024;-76
2023/09/29 03:07:34;;;;;;;27.73;20.80;;;13.40;99.90;;;;;;2079101;28;20025;-74
2023/09/29 03:08:35;;;;;;;27.33;19.73;;;13.40;99.90;;;;;;2081428;28;20120;-74
2023/09/29 03:09:36;;;;;;;27.80;20.23;;;13.40;99.90;;;;;;2078089;28;20690;-74
2023/09/29 03:10:37;;;;;;;27.50;20.38;;;13.40;99.90;;;;;;2084975;28;20036;-75
2023/09/29 03:11:39;;;;;;;26.00;20.17;;;13.40;99.90;;;;;;2084864;28;20522;-75
2023/09/29 03:12:41;;;;;;;28.60;20.58;;;13.40;99.90;;;;;;2078083;28;20057;-74
2023/09/29 03:13:41;;;;;;;27.17;20.33;;;13.40;99.90;;;;;;2076138;28;20505;-75
2023/09/29 03:14:42;;;;;;;26.30;19.67;;;13.40;99.90;;;;;;2089456;28;20028;-75
2023/09/29 03:15:43;;;;;;;26.77;20.02;;;13.40;99.90;;;;;;2084065;28;20520;-75
2023/09/29 03:16:45;;;;;;;25.67;20.73;;;13.40;99.90;;;;;;2086387;28;20040;-75
2023/09/29 03:17:46;;;;;;;28.33;20.73;;;13.40;99.90;;;;;;2083633;28;20095;-75
2023/09/29 03:18:47;;;;;;;27.02;20.50;;;13.40;99.90;;;;;;2086474;28;20407;-75
2023/09/29 03:19:49;;;;;;;24.23;20.67;;;13.30;99.90;;;;;;2086550;28;20519;-74
2023/09/29 03:20:50;;;;;;;24.40;20.02;;;13.30;99.90;;;;;;2086443;28;20047;-74
2023/09/29 03:21:51;;;;;;;23.50;19.33;;;13.30;99.90;;;;;;2087560;28;20120;-74
2023/09/29 03:22:52;;;;;;;27.05;20.42;;;13.30;99.90;;;;;;2082791;28;20025;-75
2023/09/29 03:23:52;;;;;;;25.33;19.77;;;13.30;99.90;;;;;;2089936;28;20127;-74
2023/09/29 03:24:53;;;;;;;26.95;20.98;;;13.30;99.90;;;;;;2087561;28;20086;-74
2023/09/29 03:25:55;;;;;;;26.92;21.23;;;13.30;99.90;;;;;;2086508;28;20029;-74
2023/09/29 03:26:57;;;;;;;27.67;20.92;;;13.20;99.90;;;;;;2078496;28;20520;-75
2023/09/29 03:27:59;;;;;;;28.30;20.35;;;13.20;99.90;;;;;;2078563;28;20024;-75
2023/09/29 03:28:59;;;;;;;28.80;21.05;;;13.20;99.90;;;;;;2089783;28;20040;-74
2023/09/29 03:30:00;;;;;;;25.50;20.02;;;13.20;99.90;;;;;;2086368;28;20029;-75
2023/09/29 03:31:08;;;;;;;25.30;20.25;;;13.20;99.90;;;;;;2083028;28;20029;-74
2023/09/29 03:32:09;;;;;;;27.42;20.02;;;13.20;99.90;;;;;;2080316;28;21998;-74
2023/09/29 03:33:10;;;;;;;29.90;20.70;;;13.20;99.90;;;;;;2075575;28;20029;-74
2023/09/29 03:34:10;;;;;;;27.30;20.95;;;13.20;99.90;;;;;;2080226;28;20032;-75
2023/09/29 03:35:13;;;;;;;27.02;20.33;;;13.20;99.90;;;;;;2086035;28;20028;-74
2023/09/29 03:36:14;;;;;;;25.05;20.30;;;13.20;99.90;;;;;;2085192;28;20103;-75
2023/09/29 03:37:15;;;;;;;28.98;20.75;;;13.20;99.90;;;;;;2084406;28;20036;-75
2023/09/29 03:38:20;;;;;;;27.02;20.65;;;13.20;99.90;;;;;;2083899;28;20027;-74
2023/09/29 03:39:20;;;;;;;24.20;20.13;;;13.10;99.90;;;;;;2078055;28;20029;-74
2023/09/29 03:40:21;;;;;;;26.65;20.52;;;13.10;99.90;;;;;;2074879;28;20026;-75
2023/09/29 03:41:23;;;;;;;27.33;20.08;;;13.10;99.90;;;;;;2084955;28;20098;-74
2023/09/29 03:42:23;;;;;;;26.45;19.88;;;13.20;99.90;;;;;;2083297;28;20547;-75
2023/09/29 03:43:24;;;;;;;24.55;20.17;;;13.10;99.90;;;;;;2086497;28;20060;-75
2023/09/29 03:44:25;;;;;;;26.17;19.88;;;13.10;99.90;;;;;;2090781;28;20020;-75
2023/09/29 03:45:28;;;;;;;28.00;21.17;;;13.10;99.90;;;;;;2078296;28;20478;-75
2023/09/29 03:46:29;;;;;;;26.63;20.40;;;13.20;99.90;;;;;;2078473;28;20028;-75
2023/09/29 03:47:29;;;;;;;26.00;19.98;;;13.20;99.90;;;;;;2087279;28;20090;-75
2023/09/29 03:48:30;;;;;;;25.85;20.58;;;13.10;99.90;;;;;;2086945;28;20021;-75
2023/09/29 03:49:31;;;;;;;27.65;21.17;;;13.20;99.90;;;;;;2086329;28;20021;-74
2023/09/29 03:50:33;;;;;;;28.15;20.48;;;13.10;99.90;;;;;;2082705;28;20027;-75
2023/09/29 03:51:33;;;;;;;25.35;19.95;;;13.20;99.90;;;;;;2077254;28;20527;-75
2023/09/29 03:52:35;;;;;;;27.25;20.42;;;13.20;99.90;;;;;;2073605;28;20057;-74
2023/09/29 03:53:38;;;;;;;25.38;20.42;;;13.20;99.90;;;;;;2088157;28;20119;-74
2023/09/29 03:54:39;;;;;;;26.65;21.13;;;13.20;99.90;;;;;;2068894;28;20064;-74
2023/09/29 03:55:40;;;;;;;26.45;20.15;;;13.20;99.90;;;;;;2077552;28;20086;-76
2023/09/29 03:56:40;;;;;;;26.40;20.25;;;13.20;99.90;;;;;;2086133;28;20032;-75
2023/09/29 03:57:41;;;;;;;25.30;19.92;;;13.30;99.90;;;;;;2079336;28;20021;-75
2023/09/29 03:58:42;;;;;;;28.35;20.92;;;13.40;99.90;;;;;;2083346;28;20052;-73
2023/09/29 03:59:44;;;;;;;24.45;20.23;;;13.40;99.90;;;;;;2089252;28;20037;-74
2023/09/29 04:00:44;;;;;;;24.77;20.23;;;13.40;99.90;;;;;;2086749;28;20108;-73
2023/09/29 04:01:45;;;;;;;26.58;20.10;;;13.40;99.90;;;;;;2090781;28;20737;-74
2023/09/29 04:02:49;;;;;;;26.58;19.83;;;13.40;99.90;;;;;;2086751;28;20021;-74
2023/09/29 04:03:50;;;;;;;26.27;19.95;;;13.40;99.90;;;;;;2079553;28;20044;-73
2023/09/29 04:04:50;;;;;;;25.35;19.20;;;13.40;99.90;;;;;;2079964;28;20037;-73
2023/09/29 04:05:51;;;;;;;29.95;22.52;;;13.40;99.90;;;;;;2084132;28;20017;-73
2023/09/29 04:06:52;;;;;;;30.20;22.15;;;13.40;99.90;;;;;;2091762;28;20644;-73
2023/09/29 04:07:53;;;;;;;27.75;20.50;;;13.40;99.90;;;;;;2088235;28;20059;-72
2023/09/29 04:08:55;;;;;;;25.88;19.65;;;13.40;99.90;;;;;;2092265;28;20032;-73
2023/09/29 04:09:55;;;;;;;28.25;20.23;;;13.40;99.90;;;;;;2091638;28;20122;-72
2023/09/29 04:10:56;;;;;;;25.55;20.27;;;13.40;99.90;;;;;;2080433;28;20634;-73
2023/09/29 04:11:57;;;;;;;25.95;20.52;;;13.30;99.90;;;;;;2087421;28;20047;-72
2023/09/29 04:12:58;;;;;;;27.58;20.00;;;13.30;99.90;;;;;;2083400;28;20569;-72
2023/09/29 04:13:58;;;;;;;28.42;20.10;;;13.30;99.90;;;;;;2076337;28;20120;-72
2023/09/29 04:14:59;;;;;;;26.73;19.52;;;13.30;99.90;;;;;;2079125;28;20037;-72
2023/09/29 04:16:07;;;;;;;26.92;19.90;;;13.30;99.90;;;;;;2083645;28;20040;-71
2023/09/29 04:17:08;;;;;;;26.13;19.92;;;13.30;99.90;;;;;;2087459;28;20035;-72
2023/09/29 04:18:08;;;;;;;25.23;20.05;;;13.30;99.90;;;;;;2089041;28;20200;-72
2023/09/29 04:19:11;;;;;;;25.63;20.30;;;13.30;99.90;;;;;;2087018;28;20108;-72
2023/09/29 04:20:13;;;;;;;26.85;20.63;;;13.20;99.90;;;;;;2086255;28;20041;-72
2023/09/29 04:21:15;;;;;;;27.25;20.02;;;13.20;99.90;;;;;;2086524;28;20108;-73
2023/09/29 04:22:16;;;;;;;30.73;20.73;;;13.20;99.90;;;;;;2089908;28;20629;-72
2023/09/29 04:23:16;;;;;;;30.25;20.42;;;13.20;99.90;;;;;;2089186;28;20051;-72
2023/09/29 04:24:17;;;;;;;27.23;20.95;;;13.20;99.90;;;;;;2086396;28;20059;-72
2023/09/29 04:25:17;;;;;;;28.85;21.23;;;13.20;99.90;;;;;;2092158;28;20424;-72
2023/09/29 04:26:20;;;;;;;28.58;20.42;;;13.10;99.90;;;;;;2084558;28;20033;-72
2023/09/29 04:27:20;;;;;;;28.20;20.75;;;13.10;99.90;;;;;;2083775;28;20024;-72
2023/09/29 04:28:21;;;;;;;29.92;20.02;;;13.10;99.90;;;;;;2083619;28;20025;-72
2023/09/29 04:29:22;;;;;;;28.90;20.65;;;13.10;99.90;;;;;;2090738;28;20078;-72
2023/09/29 04:30:22;;;;;;;30.33;20.95;;;13.10;99.90;;;;;;2092260;28;20059;-72
2023/09/29 04:31:23;;;;;;;32.20;20.23;;;13.10;99.90;;;;;;2091953;28;20024;-71
2023/09/29 04:32:23;;;;;;;28.00;20.60;;;13.10;99.90;;;;;;2079531;28;20075;-72
2023/09/29 04:33:24;;;;;;;25.42;20.58;;;13.10;99.90;;;;;;2078449;28;20021;-72
2023/09/29 04:34:25;;;;;;;29.73;20.60;;;13.10;99.90;;;;;;2086938;28;20514;-72
2023/09/29 04:35:25;;;;;;;28.38;20.45;;;13.10;99.90;;;;;;2083867;28;20455;-71
2023/09/29 04:36:26;;;;;;;25.42;20.65;;;13.10;99.90;;;;;;2087055;28;20546;-71
2023/09/29 04:37:26;;;;;;;25.35;20.10;;;13.10;99.90;;;;;;2091195;28;20476;-72
2023/09/29 04:38:27;;;;;;;27.17;20.65;;;13.10;99.90;;;;;;2087500;28;20443;-72
2023/09/29 04:39:28;;;;;;;29.23;21.13;;;13.20;99.90;;;;;;2091583;28;20589;-72
2023/09/29 04:40:28;;;;;;;29.30;21.77;;;13.20;99.90;;;;;;2078896;28;20029;-72
2023/09/29 04:41:29;;;;;;;32.03;21.17;;;13.20;99.90;;;;;;2079148;28;20021;-71
2023/09/29 04:42:31;;;;;;;25.75;21.05;;;13.10;99.90;;;;;;2088211;28;20453;-72
2023/09/29 04:43:31;;;;;;;30.15;20.85;;;13.10;99.90;;;;;;2082719;28;20024;-71
2023/09/29 04:44:32;;;;;;;30.33;20.95;;;13.10;99.90;;;;;;2067389;28;20041;-71
2023/09/29 04:45:33;;;;;;;30.00;21.17;;;13.10;99.90;;;;;;2080290;28;20108;-72
2023/09/29 04:46:34;;;;;;;25.17;20.48;;;13.10;99.90;;;;;;2084200;28;20033;-72
2023/09/29 04:47:35;;;;;;;28.27;20.80;;;13.00;99.90;;;;;;2075272;28;20053;-72
2023/09/29 04:48:35;;;;;;;28.35;20.88;;;13.00;99.90;;;;;;2090938;28;20032;-73
2023/09/29 04:49:36;;;;;;;29.55;21.20;;;13.00;99.90;;;;;;2082754;28;20025;-72
2023/09/29 04:50:37;;;;;;;28.98;21.15;;;13.00;99.90;;;;;;2089250;28;20027;-72
2023/09/29 04:51:37;;;;;;;26.45;20.65;;;13.00;99.90;;;;;;2091939;28;20032;-72
2023/09/29 04:52:38;;;;;;;26.80;20.58;;;13.00;99.90;;;;;;2092114;28;20032;-72
2023/09/29 04:53:38;;;;;;;30.00;21.00;;;13.00;99.90;;;;;;2092045;28;20551;-72
2023/09/29 04:54:39;;;;;;;34.55;22.05;;;13.10;99.90;;;;;;2091958;28;20122;-71
2023/09/29 04:55:40;;;;;;;28.33;20.73;;;13.00;99.90;;;;;;2092148;28;20031;-72
2023/09/29 04:56:40;;;;;;;26.50;20.45;;;13.00;99.90;;;;;;2086355;28;20039;-71
2023/09/29 04:57:41;;;;;;;26.88;20.75;;;13.00;99.90;;;;;;2089714;28;20025;-72
2023/09/29 04:58:41;;;;;;;29.10;23.30;;;13.00;99.90;;;;;;2089642;28;20173;-72
2023/09/29 04:59:42;;;;;;;30.33;22.63;;;13.00;99.90;;;;;;2083959;28;20111;-72
2023/09/29 05:00:43;;;;;;;28.17;21.17;;;13.00;99.90;;;;;;2086402;28;20036;-72
2023/09/29 05:01:43;;;;;;;29.48;21.95;;;13.00;99.90;;;;;;2085675;28;20052;-72
2023/09/29 05:02:44;;;;;;;30.02;21.85;;;13.00;99.90;;;;;;2083330;28;20579;-71
2023/09/29 05:03:47;;;;;;;30.73;21.90;;;13.00;99.90;;;;;;2089678;28;20028;-72
2023/09/29 05:04:47;;;;;;;28.60;20.80;;;13.00;99.90;;;;;;2089816;28;20042;-72
2023/09/29 05:05:48;;;;;;;31.15;21.73;;;13.00;99.90;;;;;;2092074;28;20024;-73
2023/09/29 05:06:48;;;;;;;25.20;20.95;;;13.00;99.90;;;;;;2087392;28;20029;-72
2023/09/29 05:07:49;;;;;;;27.35;20.88;;;13.00;99.90;;;;;;2083158;28;20491;-72
2023/09/29 05:08:50;;;;;;;29.60;21.38;;;13.00;99.90;;;;;;2078995;28;20574;-72
2023/09/29 05:09:51;;;;;;;29.52;21.23;;;13.00;99.90;;;;;;2080204;28;20066;-72
2023/09/29 05:10:51;;;;;;;32.35;21.23;;;13.00;99.90;;;;;;2087098;28;20761;-72
2023/09/29 05:11:52;;;;;;;27.13;20.98;;;13.00;99.90;;;;;;2090297;28;20048;-72